createdAt,value
2023-01-01T00:00:00.556Z,14.17
2023-01-01T00:05:00.383Z,14.17
2023-01-01T00:15:01.057Z,13.66
2023-01-01T00:20:00.720Z,13.66
2023-01-01T00:25:00.765Z,13.66
2023-01-01T00:30:00.994Z,13.66
2023-01-01T00:35:00.730Z,13.66
2023-01-01T00:40:00.758Z,13.27
2023-01-01T00:45:00.891Z,13.27
2023-01-01T00:50:00.746Z,13.27
2023-01-01T00:55:00.858Z,12.97
2023-01-01T01:00:00.924Z,12.97
2023-01-01T01:05:03.186Z,12.49
2023-01-01T01:10:00.824Z,12.39
2023-01-01T01:15:01.190Z,12.39
2023-01-01T01:20:00.796Z,12.19
2023-01-01T01:25:00.757Z,12.3
2023-01-01T01:30:03.253Z,12.43
2023-01-01T01:35:00.746Z,12.87
2023-01-01T01:40:00.739Z,12.35
2023-01-01T01:45:00.971Z,12.35
2023-01-01T01:50:00.736Z,12.35
2023-01-01T01:55:03.241Z,12.35
2023-01-01T02:00:06.803Z,11.77
2023-01-01T02:05:03.320Z,11.77
2023-01-01T02:10:00.755Z,11.77
2023-01-01T02:15:01.079Z,11.77
2023-01-01T02:20:00.729Z,11.77
2023-01-01T02:25:00.758Z,11.77
2023-01-01T02:30:00.839Z,11.77
2023-01-01T02:35:00.759Z,11.77
2023-01-01T02:40:00.723Z,11.77
2023-01-01T02:45:00.954Z,11.47
2023-01-01T02:50:00.709Z,11.47
2023-01-01T02:55:00.735Z,11.39
2023-01-01T03:00:00.936Z,11.39
2023-01-01T03:05:00.723Z,11.39
2023-01-01T03:10:00.525Z,11.39
2023-01-01T03:15:00.731Z,10.97
2023-01-01T03:20:00.440Z,10.97
2023-01-01T03:25:00.552Z,10.97
2023-01-01T03:30:00.724Z,10.97
2023-01-01T03:35:00.543Z,10.97
2023-01-01T03:40:00.461Z,10.97
2023-01-01T03:45:00.617Z,10.97
2023-01-01T03:50:00.428Z,10.91
2023-01-01T03:55:00.488Z,10.91
2023-01-01T04:00:00.707Z,10.91
2023-01-01T04:05:00.453Z,10.91
2023-01-01T04:10:00.664Z,10.46
2023-01-01T04:15:00.604Z,10.46
2023-01-01T04:20:00.687Z,10.46
2023-01-01T04:25:00.319Z,10.46
2023-01-01T04:30:00.526Z,10.46
2023-01-01T04:35:00.475Z,10.15
2023-01-01T04:40:00.450Z,10.13
2023-01-01T04:45:00.310Z,10.13
2023-01-01T04:50:00.529Z,10.13
2023-01-01T04:55:00.310Z,9.88
2023-01-01T05:00:00.394Z,9.88
2023-01-01T05:05:03.719Z,9.88
2023-01-01T05:10:00.338Z,9.88
2023-01-01T05:15:00.605Z,9.88
2023-01-01T05:20:00.961Z,9.88
2023-01-01T05:25:00.325Z,9.54
2023-01-01T05:30:00.373Z,9.54
2023-01-01T05:35:00.434Z,9.26
2023-01-01T05:40:00.432Z,9.26
2023-01-01T05:45:00.320Z,9.26
2023-01-01T05:50:00.520Z,9.26
2023-01-01T05:55:00.327Z,9.26
2023-01-01T06:00:00.492Z,9.26
2023-01-01T06:05:03.430Z,9.3
2023-01-01T06:10:00.338Z,9.3
2023-01-01T06:15:00.487Z,9.3
2023-01-01T06:20:00.525Z,9.3
2023-01-01T06:25:00.508Z,9.3
2023-01-01T06:30:00.332Z,9.09
2023-01-01T06:35:00.472Z,9.09
2023-01-01T06:40:00.329Z,8.71
2023-01-01T06:45:00.466Z,8.71
2023-01-01T06:50:00.417Z,8.71
2023-01-01T06:55:00.503Z,8.51
2023-01-01T07:00:01.574Z,8.51
2023-01-01T07:05:03.486Z,8.51
2023-01-01T07:10:00.331Z,8.51
2023-01-01T07:15:00.420Z,8.51
2023-01-01T07:20:00.387Z,8.51
2023-01-01T07:25:00.466Z,8.51
2023-01-01T07:30:00.355Z,8.76
2023-01-01T07:35:00.444Z,8.76
2023-01-01T07:40:00.335Z,8.76
2023-01-01T07:45:00.452Z,8.83
2023-01-01T07:50:00.428Z,8.99
2023-01-01T07:55:00.488Z,8.99
2023-01-01T08:00:00.390Z,8.99
2023-01-01T08:05:03.297Z,8.99
2023-01-01T08:10:00.337Z,9.5
2023-01-01T08:15:00.476Z,10
2023-01-01T08:20:00.407Z,10.53
2023-01-01T08:25:00.393Z,10.53
2023-01-01T08:30:00.356Z,11.03
2023-01-01T08:35:00.574Z,11.03
2023-01-01T08:40:00.425Z,11.58
2023-01-01T08:45:00.450Z,11.58
2023-01-01T08:50:00.482Z,12.09
2023-01-01T08:55:00.375Z,12.09
2023-01-01T09:00:00.484Z,12.09
2023-01-01T09:05:03.423Z,12.09
2023-01-01T09:10:00.357Z,12.09
2023-01-01T09:15:00.431Z,12.09
2023-01-01T09:20:00.686Z,12.66
2023-01-01T09:30:00.807Z,13.14
2023-01-01T09:35:00.511Z,13.14
2023-01-01T09:40:00.617Z,13.14
2023-01-01T09:45:00.691Z,13.14
2023-01-01T09:50:00.501Z,13.14
2023-01-01T09:55:00.595Z,13.14
2023-01-01T10:00:00.855Z,13.66
2023-01-01T10:05:00.502Z,14.19
2023-01-01T10:10:00.652Z,15.28
2023-01-01T10:15:01.125Z,15.65
2023-01-01T10:20:00.712Z,15.85
2023-01-01T10:25:00.520Z,15.85
2023-01-01T10:30:04.344Z,15.85
2023-01-01T10:35:00.491Z,15.85
2023-01-01T10:40:00.658Z,15.85
2023-01-01T10:45:00.848Z,15.85
2023-01-01T10:50:00.509Z,16.24
2023-01-01T10:55:00.660Z,16.24
2023-01-01T11:00:00.871Z,16.24
2023-01-01T11:05:04.196Z,16.78
2023-01-01T11:10:03.788Z,16.78
2023-01-01T11:15:00.771Z,16.78
2023-01-01T11:20:02.371Z,16.78
2023-01-01T11:25:00.528Z,16.78
2023-01-01T11:30:00.892Z,17.1
2023-01-01T11:35:00.548Z,17.1
2023-01-01T11:40:00.557Z,17.1
2023-01-01T11:45:00.705Z,17.1
2023-01-01T11:50:00.506Z,17.61
2023-01-01T11:55:00.556Z,17.61
2023-01-01T12:00:00.802Z,17.61
2023-01-01T12:05:00.496Z,17.45
2023-01-01T12:10:00.700Z,17.45
2023-01-01T12:15:00.700Z,17.45
2023-01-01T12:20:00.579Z,17.45
2023-01-01T12:25:00.511Z,17.45
2023-01-01T12:30:00.685Z,17.45
2023-01-01T12:35:00.532Z,17.45
2023-01-01T12:40:00.574Z,17.45
2023-01-01T12:45:01.144Z,17.45
2023-01-01T12:50:00.554Z,17.45
2023-01-01T12:55:00.566Z,17.45
2023-01-01T13:00:01.031Z,17.72
2023-01-01T13:05:00.548Z,17.72
2023-01-01T13:10:00.721Z,17.72
2023-01-01T13:15:00.691Z,17.72
2023-01-01T13:20:00.658Z,17.07
2023-01-01T13:25:00.541Z,17.07
2023-01-01T13:30:00.666Z,17.07
2023-01-01T13:35:00.495Z,17.07
2023-01-01T13:40:00.521Z,17.07
2023-01-01T13:45:00.819Z,17.07
2023-01-01T13:50:00.509Z,17.07
2023-01-01T13:55:00.564Z,17.07
2023-01-01T14:00:00.879Z,16.75
2023-01-01T14:05:00.529Z,16.66
2023-01-01T14:10:00.800Z,16.66
2023-01-01T14:15:00.700Z,16.66
2023-01-01T14:20:00.555Z,16.66
2023-01-01T14:25:05.579Z,16.66
2023-01-01T14:30:01.020Z,16.66
2023-01-01T14:35:00.511Z,16.66
2023-01-01T14:40:00.641Z,16.66
2023-01-01T14:45:00.633Z,16.66
2023-01-01T14:50:00.518Z,16.14
2023-01-01T14:55:00.565Z,16.14
2023-01-01T15:00:00.709Z,15.99
2023-01-01T15:05:00.596Z,15.99
2023-01-01T15:10:00.731Z,15.99
2023-01-01T15:15:00.661Z,15.6
2023-01-01T15:20:00.602Z,15.6
2023-01-01T15:30:01.041Z,15.55
2023-01-01T15:35:00.551Z,15.55
2023-01-01T15:40:00.585Z,16.08
2023-01-01T15:45:00.735Z,16.2
2023-01-01T15:55:00.878Z,15.67
2023-01-01T16:00:00.728Z,15.67
2023-01-01T16:05:03.531Z,15.67
2023-01-01T16:10:01.105Z,15.17
2023-01-01T16:15:00.754Z,14.95
2023-01-01T16:20:00.740Z,15.05
2023-01-01T16:25:01.001Z,15.12
2023-01-01T16:30:00.777Z,15.12
2023-01-01T16:35:04.185Z,15.12
2023-01-01T16:40:00.747Z,15.12
2023-01-01T16:45:00.780Z,14.62
2023-01-01T16:50:00.770Z,14.39
2023-01-01T16:55:00.871Z,14.52
2023-01-01T17:00:00.782Z,14.52
2023-01-01T17:05:03.157Z,14.52
2023-01-01T17:10:01.052Z,14.52
2023-01-01T17:15:00.868Z,14.52
2023-01-01T17:20:00.770Z,14.52
2023-01-01T17:25:00.918Z,14.52
2023-01-01T17:30:00.823Z,14.52
2023-01-01T17:35:00.712Z,14.52
2023-01-01T17:40:00.760Z,13.88
2023-01-01T17:45:00.723Z,14.11
2023-01-01T17:50:00.670Z,14.07
2023-01-01T17:55:00.902Z,14
2023-01-01T18:00:00.687Z,13.91
2023-01-01T18:05:04.064Z,13.49
2023-01-01T18:10:00.968Z,13.49
2023-01-01T18:15:00.997Z,13.49
2023-01-01T18:20:00.711Z,12.98
2023-01-01T18:25:00.949Z,13.16
2023-01-01T18:30:00.682Z,13.33
2023-01-01T18:35:00.844Z,13.33
2023-01-01T18:40:00.758Z,13.33
2023-01-01T18:45:00.771Z,13.46
2023-01-01T18:50:00.654Z,13.53
2023-01-01T18:55:00.891Z,13.53
2023-01-01T19:00:00.675Z,13.53
2023-01-01T19:05:03.134Z,13.01
2023-01-01T19:10:01.014Z,12.49
2023-01-01T19:15:00.758Z,11.96
2023-01-01T19:20:00.640Z,11.96
2023-01-01T19:25:00.856Z,11.96
2023-01-01T19:30:00.710Z,11.96
2023-01-01T19:35:00.777Z,11.96
2023-01-01T19:40:00.718Z,11.85
2023-01-01T19:45:00.772Z,11.84
2023-01-01T19:50:00.649Z,11.29
2023-01-01T19:55:00.906Z,11.29
2023-01-01T20:00:00.649Z,11.29
2023-01-01T20:05:03.583Z,11.29
2023-01-01T20:10:01.049Z,11.29
2023-01-01T20:15:00.715Z,11.29
2023-01-01T20:20:00.691Z,10.76
2023-01-01T20:25:00.897Z,10.92
2023-01-01T20:30:00.691Z,11.19
2023-01-01T20:35:00.787Z,11.19
2023-01-01T20:40:00.752Z,11.84
2023-01-01T20:45:00.749Z,11.19
2023-01-01T20:55:00.961Z,11.19
2023-01-01T21:00:00.785Z,11.19
2023-01-01T21:05:03.363Z,11.1
2023-01-01T21:10:01.090Z,11.1
2023-01-01T21:15:00.911Z,11.1
2023-01-01T21:20:00.716Z,10.6
2023-01-01T21:25:23.850Z,10.6
2023-01-01T21:30:00.734Z,10.6
2023-01-01T21:35:00.830Z,10.08
2023-01-01T21:40:00.839Z,9.99
2023-01-01T21:45:00.809Z,9.99
2023-01-01T21:50:00.759Z,9.99
2023-01-01T21:55:00.888Z,9.99
2023-01-01T22:00:00.757Z,9.99
2023-01-01T22:05:03.231Z,9.99
2023-01-01T22:10:01.067Z,10.33
2023-01-01T22:15:00.805Z,10.33
2023-01-01T22:20:00.737Z,9.82
2023-01-01T22:25:01.025Z,9.67
2023-01-01T22:30:00.827Z,9.34
2023-01-01T22:35:00.853Z,9.34
2023-01-01T22:40:00.917Z,9.34
2023-01-01T22:45:00.827Z,9.34
2023-01-01T22:50:00.735Z,10.17
2023-01-01T22:55:00.946Z,10.29
2023-01-01T23:00:00.785Z,10.29
2023-01-01T23:05:03.315Z,9.75
2023-01-01T23:10:01.041Z,9.75
2023-01-01T23:15:00.779Z,9.27
2023-01-01T23:20:00.734Z,9.27
2023-01-01T23:25:01.053Z,9.27
2023-01-01T23:30:00.790Z,8.98
2023-01-01T23:35:00.916Z,8.98
2023-01-01T23:40:00.848Z,8.44
2023-01-01T23:45:00.780Z,8.44
2023-01-01T23:50:00.722Z,8.55
2023-01-01T23:55:01.000Z,8.55
